sensor_id;sensor_type;location;lat;lon;timestamp;temperature;humidity
45323;DHT22;31382;50.200;8.674;2022-09-12T00:03:03;13.80;99.90
45323;DHT22;31382;50.200;8.674;2022-09-12T00:08:05;13.70;99.90
45323;DHT22;31382;50.200;8.674;2022-09-12T00:13:07;13.80;99.90
45323;DHT22;31382;50.200;8.674;2022-09-12T00:18:14;13.70;99.90
45323;DHT22;31382;50.200;8.674;2022-09-12T00:23:16;13.60;99.90
45323;DHT22;31382;50.200;8.674;2022-09-12T00:28:18;13.60;99.90
45323;DHT22;31382;50.200;8.674;2022-09-12T00:33:20;13.50;99.90
45323;DHT22;31382;50.200;8.674;2022-09-12T00:38:22;13.40;99.90
45323;DHT22;31382;50.200;8.674;2022-09-12T00:48:36;13.40;99.90
45323;DHT22;31382;50.200;8.674;2022-09-12T00:53:41;13.30;99.90
45323;DHT22;31382;50.200;8.674;2022-09-12T00:58:50;13.20;99.90
45323;DHT22;31382;50.200;8.674;2022-09-12T01:03:53;13.20;99.90
45323;DHT22;31382;50.200;8.674;2022-09-12T01:08:55;13.10;99.90
45323;DHT22;31382;50.200;8.674;2022-09-12T01:13:59;13.10;99.90
45323;DHT22;31382;50.200;8.674;2022-09-12T01:30:22;13.00;99.90
45323;DHT22;31382;50.200;8.674;2022-09-12T01:41:14;12.90;99.90
45323;DHT22;31382;50.200;8.674;2022-09-12T01:46:27;12.80;99.90
45323;DHT22;31382;50.200;8.674;2022-09-12T01:51:38;12.80;99.90
45323;DHT22;31382;50.200;8.674;2022-09-12T01:56:43;12.80;99.90
45323;DHT22;31382;50.200;8.674;2022-09-12T02:01:51;12.70;99.90
45323;DHT22;31382;50.200;8.674;2022-09-12T02:12:07;12.70;99.90
45323;DHT22;31382;50.200;8.674;2022-09-12T02:17:21;12.70;99.90
45323;DHT22;31382;50.200;8.674;2022-09-12T02:22:26;12.70;99.90
45323;DHT22;31382;50.200;8.674;2022-09-12T02:27:34;12.50;99.90
45323;DHT22;31382;50.200;8.674;2022-09-12T02:32:55;12.50;99.90
45323;DHT22;31382;50.200;8.674;2022-09-12T02:38:05;12.50;99.90
45323;DHT22;31382;50.200;8.674;2022-09-12T02:43:08;12.50;99.90
45323;DHT22;31382;50.200;8.674;2022-09-12T02:48:18;12.40;99.90
45323;DHT22;31382;50.200;8.674;2022-09-12T02:53:22;12.40;99.90
45323;DHT22;31382;50.200;8.674;2022-09-12T02:58:27;12.40;99.90
45323;DHT22;31382;50.200;8.674;2022-09-12T03:09:18;12.30;99.90
45323;DHT22;31382;50.200;8.674;2022-09-12T03:14:25;12.30;99.90
45323;DHT22;31382;50.200;8.674;2022-09-12T03:25:08;12.20;99.90
45323;DHT22;31382;50.200;8.674;2022-09-12T03:30:13;12.10;99.90
45323;DHT22;31382;50.200;8.674;2022-09-12T03:35:16;12.10;99.90
45323;DHT22;31382;50.200;8.674;2022-09-12T03:40:23;12.10;99.90
45323;DHT22;31382;50.200;8.674;2022-09-12T03:45:25;12.10;99.90
45323;DHT22;31382;50.200;8.674;2022-09-12T03:50:27;12.10;99.90
45323;DHT22;31382;50.200;8.674;2022-09-12T03:55:28;12.10;99.90
45323;DHT22;31382;50.200;8.674;2022-09-12T04:00:30;12.20;99.90
45323;DHT22;31382;50.200;8.674;2022-09-12T04:05:32;12.00;99.90
45323;DHT22;31382;50.200;8.674;2022-09-12T04:10:33;12.00;99.90
45323;DHT22;31382;50.200;8.674;2022-09-12T04:15:35;12.00;99.90
45323;DHT22;31382;50.200;8.674;2022-09-12T04:20:37;12.00;99.90
45323;DHT22;31382;50.200;8.674;2022-09-12T04:25:38;12.00;99.90
45323;DHT22;31382;50.200;8.674;2022-09-12T04:30:40;12.00;99.90
45323;DHT22;31382;50.200;8.674;2022-09-12T04:35:42;11.90;99.90
45323;DHT22;31382;50.200;8.674;2022-09-12T04:40:45;12.00;99.90
45323;DHT22;31382;50.200;8.674;2022-09-12T04:45:48;11.90;99.90
45323;DHT22;31382;50.200;8.674;2022-09-12T04:50:49;11.90;99.90
45323;DHT22;31382;50.200;8.674;2022-09-12T04:55:51;11.80;99.90
45323;DHT22;31382;50.200;8.674;2022-09-12T05:00:53;11.80;99.90
45323;DHT22;31382;50.200;8.674;2022-09-12T05:05:54;11.80;99.90
45323;DHT22;31382;50.200;8.674;2022-09-12T05:11:02;11.80;99.90
45323;DHT22;31382;50.200;8.674;2022-09-12T05:16:06;11.80;99.90
45323;DHT22;31382;50.200;8.674;2022-09-12T05:21:13;11.80;99.90
45323;DHT22;31382;50.200;8.674;2022-09-12T05:26:15;11.80;99.90
45323;DHT22;31382;50.200;8.674;2022-09-12T05:31:23;11.80;99.90
45323;DHT22;31382;50.200;8.674;2022-09-12T05:36:28;11.80;99.90
45323;DHT22;31382;50.200;8.674;2022-09-12T05:41:32;11.80;99.90
45323;DHT22;31382;50.200;8.674;2022-09-12T05:46:37;11.90;99.90
45323;DHT22;31382;50.200;8.674;2022-09-12T05:51:42;11.90;99.90
45323;DHT22;31382;50.200;8.674;2022-09-12T05:56:44;11.90;99.90
45323;DHT22;31382;50.200;8.674;2022-09-12T06:01:46;12.00;99.90
45323;DHT22;31382;50.200;8.674;2022-09-12T06:06:49;12.10;99.90
45323;DHT22;31382;50.200;8.674;2022-09-12T06:11:52;12.30;99.90
45323;DHT22;31382;50.200;8.674;2022-09-12T06:16:54;12.30;99.90
45323;DHT22;31382;50.200;8.674;2022-09-12T06:21:55;12.40;99.90
45323;DHT22;31382;50.200;8.674;2022-09-12T06:26:57;12.50;99.90
45323;DHT22;31382;50.200;8.674;2022-09-12T06:31:59;12.60;99.90
45323;DHT22;31382;50.200;8.674;2022-09-12T06:37:00;12.80;99.90
45323;DHT22;31382;50.200;8.674;2022-09-12T06:42:04;12.90;99.90
45323;DHT22;31382;50.200;8.674;2022-09-12T06:47:06;13.10;99.90
45323;DHT22;31382;50.200;8.674;2022-09-12T06:52:08;13.30;99.90
45323;DHT22;31382;50.200;8.674;2022-09-12T06:57:09;13.40;99.90
45323;DHT22;31382;50.200;8.674;2022-09-12T07:02:11;13.60;99.90
45323;DHT22;31382;50.200;8.674;2022-09-12T07:07:13;13.80;99.90
45323;DHT22;31382;50.200;8.674;2022-09-12T07:12:15;14.00;99.90
45323;DHT22;31382;50.200;8.674;2022-09-12T07:17:16;14.10;99.90
45323;DHT22;31382;50.200;8.674;2022-09-12T07:22:19;14.30;99.90
45323;DHT22;31382;50.200;8.674;2022-09-12T07:27:20;14.50;99.90
45323;DHT22;31382;50.200;8.674;2022-09-12T07:32:22;14.60;99.90
45323;DHT22;31382;50.200;8.674;2022-09-12T07:37:24;14.80;99.90
45323;DHT22;31382;50.200;8.674;2022-09-12T07:42:25;15.00;99.90
45323;DHT22;31382;50.200;8.674;2022-09-12T07:47:27;15.30;99.90
45323;DHT22;31382;50.200;8.674;2022-09-12T07:52:29;15.40;99.90
45323;DHT22;31382;50.200;8.674;2022-09-12T07:57:31;15.60;99.90
45323;DHT22;31382;50.200;8.674;2022-09-12T08:02:33;15.80;99.90
45323;DHT22;31382;50.200;8.674;2022-09-12T08:07:35;16.00;99.90
45323;DHT22;31382;50.200;8.674;2022-09-12T08:12:37;16.30;99.90
45323;DHT22;31382;50.200;8.674;2022-09-12T08:17:39;16.50;99.90
45323;DHT22;31382;50.200;8.674;2022-09-12T08:22:41;16.70;99.90
45323;DHT22;31382;50.200;8.674;2022-09-12T08:27:43;16.90;99.90
45323;DHT22;31382;50.200;8.674;2022-09-12T08:32:47;16.90;99.90
45323;DHT22;31382;50.200;8.674;2022-09-12T08:37:48;17.10;99.90
45323;DHT22;31382;50.200;8.674;2022-09-12T08:43:09;17.20;99.90
45323;DHT22;31382;50.200;8.674;2022-09-12T08:48:14;17.50;99.90
45323;DHT22;31382;50.200;8.674;2022-09-12T08:53:20;17.60;99.90
45323;DHT22;31382;50.200;8.674;2022-09-12T08:58:25;17.80;99.90
45323;DHT22;31382;50.200;8.674;2022-09-12T09:03:48;18.00;99.90
45323;DHT22;31382;50.200;8.674;2022-09-12T09:19:58;18.40;99.90
45323;DHT22;31382;50.200;8.674;2022-09-12T09:25:20;18.70;99.90
45323;DHT22;31382;50.200;8.674;2022-09-12T09:30:23;18.80;99.90
45323;DHT22;31382;50.200;8.674;2022-09-12T09:46:12;19.40;99.90
45323;DHT22;31382;50.200;8.674;2022-09-12T09:51:16;19.60;99.90
45323;DHT22;31382;50.200;8.674;2022-09-12T09:56:37;19.80;99.90
45323;DHT22;31382;50.200;8.674;2022-09-12T10:01:45;20.00;99.90
45323;DHT22;31382;50.200;8.674;2022-09-12T10:06:53;20.20;99.90
45323;DHT22;31382;50.200;8.674;2022-09-12T10:11:56;20.40;99.90
45323;DHT22;31382;50.200;8.674;2022-09-12T10:16:57;20.50;99.90
45323;DHT22;31382;50.200;8.674;2022-09-12T10:22:00;20.70;99.90
45323;DHT22;31382;50.200;8.674;2022-09-12T10:32:22;20.90;99.90
45323;DHT22;31382;50.200;8.674;2022-09-12T10:37:38;21.30;99.90
45323;DHT22;31382;50.200;8.674;2022-09-12T10:42:51;21.70;99.90
45323;DHT22;31382;50.200;8.674;2022-09-12T10:47:55;21.50;99.90
45323;DHT22;31382;50.200;8.674;2022-09-12T10:53:31;21.80;99.90
45323;DHT22;31382;50.200;8.674;2022-09-12T10:58:52;22.10;99.90
45323;DHT22;31382;50.200;8.674;2022-09-12T11:09:54;22.50;99.90
45323;DHT22;31382;50.200;8.674;2022-09-12T11:25:44;22.50;99.90
45323;DHT22;31382;50.200;8.674;2022-09-12T11:36:01;22.70;99.90
45323;DHT22;31382;50.200;8.674;2022-09-12T11:41:08;22.60;99.90
45323;DHT22;31382;50.200;8.674;2022-09-12T11:46:37;22.60;99.90
45323;DHT22;31382;50.200;8.674;2022-09-12T12:02:33;22.70;99.90
45323;DHT22;31382;50.200;8.674;2022-09-12T12:07:41;23.00;99.90
45323;DHT22;31382;50.200;8.674;2022-09-12T12:12:46;23.30;99.90
45323;DHT22;31382;50.200;8.674;2022-09-12T12:18:01;23.50;99.90
45323;DHT22;31382;50.200;8.674;2022-09-12T12:23:04;23.70;99.90
45323;DHT22;31382;50.200;8.674;2022-09-12T12:28:05;23.90;99.90
45323;DHT22;31382;50.200;8.674;2022-09-12T12:38:34;24.10;99.90
45323;DHT22;31382;50.200;8.674;2022-09-12T12:43:36;24.60;99.90
45323;DHT22;31382;50.200;8.674;2022-09-12T12:49:36;24.50;99.90
45323;DHT22;31382;50.200;8.674;2022-09-12T12:54:34;24.80;99.90
45323;DHT22;31382;50.200;8.674;2022-09-12T13:00:06;24.50;99.90
45323;DHT22;31382;50.200;8.674;2022-09-12T13:05:19;24.90;99.90
45323;DHT22;31382;50.200;8.674;2022-09-12T13:10:27;25.10;99.60
45323;DHT22;31382;50.200;8.674;2022-09-12T13:20:50;25.30;99.90
45323;DHT22;31382;50.200;8.674;2022-09-12T13:25:56;25.90;98.30
45323;DHT22;31382;50.200;8.674;2022-09-12T13:31:01;26.10;98.10
45323;DHT22;31382;50.200;8.674;2022-09-12T13:42:01;26.00;97.20
45323;DHT22;31382;50.200;8.674;2022-09-12T13:47:14;26.20;95.50
45323;DHT22;31382;50.200;8.674;2022-09-12T13:52:20;26.40;96.10
45323;DHT22;31382;50.200;8.674;2022-09-12T13:57:34;26.20;95.80
45323;DHT22;31382;50.200;8.674;2022-09-12T14:02:41;26.30;95.60
45323;DHT22;31382;50.200;8.674;2022-09-12T14:07:56;26.50;95.50
45323;DHT22;31382;50.200;8.674;2022-09-12T14:13:09;26.50;95.20
45323;DHT22;31382;50.200;8.674;2022-09-12T14:18:26;26.10;93.20
45323;DHT22;31382;50.200;8.674;2022-09-12T14:23:30;25.70;92.80
45323;DHT22;31382;50.200;8.674;2022-09-12T14:28:33;25.40;94.10
45323;DHT22;31382;50.200;8.674;2022-09-12T14:33:56;25.30;92.90
45323;DHT22;31382;50.200;8.674;2022-09-12T14:39:31;25.60;94.00
45323;DHT22;31382;50.200;8.674;2022-09-12T14:44:34;26.00;94.30
45323;DHT22;31382;50.200;8.674;2022-09-12T14:49:36;26.00;93.90
45323;DHT22;31382;50.200;8.674;2022-09-12T14:54:38;26.20;93.80
45323;DHT22;31382;50.200;8.674;2022-09-12T14:59:42;26.50;92.30
45323;DHT22;31382;50.200;8.674;2022-09-12T15:10:28;26.70;93.40
45323;DHT22;31382;50.200;8.674;2022-09-12T15:15:31;26.60;92.90
45323;DHT22;31382;50.200;8.674;2022-09-12T15:20:38;26.50;92.40
45323;DHT22;31382;50.200;8.674;2022-09-12T15:25:39;26.50;92.30
45323;DHT22;31382;50.200;8.674;2022-09-12T15:30:41;26.50;92.10
45323;DHT22;31382;50.200;8.674;2022-09-12T15:35:43;26.20;92.10
45323;DHT22;31382;50.200;8.674;2022-09-12T15:40:49;26.20;94.00
45323;DHT22;31382;50.200;8.674;2022-09-12T15:45:54;25.90;91.70
45323;DHT22;31382;50.200;8.674;2022-09-12T15:50:55;25.80;93.60
45323;DHT22;31382;50.200;8.674;2022-09-12T15:56:01;25.70;93.90
45323;DHT22;31382;50.200;8.674;2022-09-12T16:01:04;25.50;92.90
45323;DHT22;31382;50.200;8.674;2022-09-12T16:06:06;25.40;93.90
45323;DHT22;31382;50.200;8.674;2022-09-12T16:11:29;25.40;93.30
45323;DHT22;31382;50.200;8.674;2022-09-12T16:16:31;25.40;94.60
45323;DHT22;31382;50.200;8.674;2022-09-12T16:21:33;25.30;95.40
45323;DHT22;31382;50.200;8.674;2022-09-12T16:26:35;25.20;95.60
45323;DHT22;31382;50.200;8.674;2022-09-12T16:31:36;25.10;95.80
45323;DHT22;31382;50.200;8.674;2022-09-12T16:36:39;25.10;95.70
45323;DHT22;31382;50.200;8.674;2022-09-12T16:41:41;25.00;95.60
45323;DHT22;31382;50.200;8.674;2022-09-12T16:46:43;24.90;95.50
45323;DHT22;31382;50.200;8.674;2022-09-12T16:51:44;24.80;96.40
45323;DHT22;31382;50.200;8.674;2022-09-12T16:56:47;24.60;97.70
45323;DHT22;31382;50.200;8.674;2022-09-12T17:01:50;24.40;96.80
45323;DHT22;31382;50.200;8.674;2022-09-12T17:06:52;24.30;97.60
45323;DHT22;31382;50.200;8.674;2022-09-12T17:11:54;24.10;97.80
45323;DHT22;31382;50.200;8.674;2022-09-12T17:16:56;23.90;98.00
45323;DHT22;31382;50.200;8.674;2022-09-12T17:21:58;23.80;98.60
45323;DHT22;31382;50.200;8.674;2022-09-12T17:27:00;23.50;99.50
45323;DHT22;31382;50.200;8.674;2022-09-12T17:32:02;23.30;99.90
45323;DHT22;31382;50.200;8.674;2022-09-12T17:37:04;23.00;99.90
45323;DHT22;31382;50.200;8.674;2022-09-12T17:42:05;22.80;99.90
45323;DHT22;31382;50.200;8.674;2022-09-12T17:47:08;22.60;99.90
45323;DHT22;31382;50.200;8.674;2022-09-12T17:52:10;22.30;99.90
45323;DHT22;31382;50.200;8.674;2022-09-12T17:57:12;22.00;99.90
45323;DHT22;31382;50.200;8.674;2022-09-12T18:02:14;21.80;99.90
45323;DHT22;31382;50.200;8.674;2022-09-12T18:07:18;21.60;99.90
45323;DHT22;31382;50.200;8.674;2022-09-12T18:12:20;21.30;99.90
45323;DHT22;31382;50.200;8.674;2022-09-12T18:17:21;21.10;99.90
45323;DHT22;31382;50.200;8.674;2022-09-12T18:22:23;20.90;99.90
45323;DHT22;31382;50.200;8.674;2022-09-12T18:27:25;20.60;99.90
45323;DHT22;31382;50.200;8.674;2022-09-12T18:32:26;20.40;99.90
45323;DHT22;31382;50.200;8.674;2022-09-12T18:37:28;20.30;99.90
45323;DHT22;31382;50.200;8.674;2022-09-12T18:42:30;20.10;99.90
45323;DHT22;31382;50.200;8.674;2022-09-12T18:47:31;20.00;99.90
45323;DHT22;31382;50.200;8.674;2022-09-12T18:52:33;19.80;99.90
45323;DHT22;31382;50.200;8.674;2022-09-12T18:57:35;19.60;99.90
45323;DHT22;31382;50.200;8.674;2022-09-12T19:02:36;19.40;99.90
45323;DHT22;31382;50.200;8.674;2022-09-12T19:07:38;19.30;99.90
45323;DHT22;31382;50.200;8.674;2022-09-12T19:12:40;19.10;99.90
45323;DHT22;31382;50.200;8.674;2022-09-12T19:17:41;18.90;99.90
45323;DHT22;31382;50.200;8.674;2022-09-12T19:22:44;18.80;99.90
45323;DHT22;31382;50.200;8.674;2022-09-12T19:27:45;18.60;99.90
45323;DHT22;31382;50.200;8.674;2022-09-12T19:32:48;18.50;99.90
45323;DHT22;31382;50.200;8.674;2022-09-12T19:37:49;18.40;99.90
45323;DHT22;31382;50.200;8.674;2022-09-12T19:42:51;18.30;99.90
45323;DHT22;31382;50.200;8.674;2022-09-12T19:47:53;18.20;99.90
45323;DHT22;31382;50.200;8.674;2022-09-12T19:52:54;18.10;99.90
45323;DHT22;31382;50.200;8.674;2022-09-12T19:57:56;17.90;99.90
45323;DHT22;31382;50.200;8.674;2022-09-12T20:02:58;17.80;99.90
45323;DHT22;31382;50.200;8.674;2022-09-12T20:07:59;17.70;99.90
45323;DHT22;31382;50.200;8.674;2022-09-12T20:13:01;17.60;99.90
45323;DHT22;31382;50.200;8.674;2022-09-12T20:18:03;17.60;99.90
45323;DHT22;31382;50.200;8.674;2022-09-12T20:23:05;17.50;99.90
45323;DHT22;31382;50.200;8.674;2022-09-12T20:28:07;17.30;99.90
45323;DHT22;31382;50.200;8.674;2022-09-12T20:33:09;17.30;99.90
45323;DHT22;31382;50.200;8.674;2022-09-12T20:38:10;17.20;99.90
45323;DHT22;31382;50.200;8.674;2022-09-12T20:43:12;17.00;99.90
45323;DHT22;31382;50.200;8.674;2022-09-12T20:48:13;16.90;99.90
45323;DHT22;31382;50.200;8.674;2022-09-12T20:53:15;16.70;99.90
45323;DHT22;31382;50.200;8.674;2022-09-12T20:58:18;16.60;99.90
45323;DHT22;31382;50.200;8.674;2022-09-12T21:03:20;16.60;99.90
45323;DHT22;31382;50.200;8.674;2022-09-12T21:08:22;16.50;99.90
45323;DHT22;31382;50.200;8.674;2022-09-12T21:13:23;16.40;99.90
45323;DHT22;31382;50.200;8.674;2022-09-12T21:18:25;16.30;99.90
45323;DHT22;31382;50.200;8.674;2022-09-12T21:23:27;16.20;99.90
45323;DHT22;31382;50.200;8.674;2022-09-12T21:28:29;16.10;99.90
45323;DHT22;31382;50.200;8.674;2022-09-12T21:33:31;16.00;99.90
45323;DHT22;31382;50.200;8.674;2022-09-12T21:38:33;15.90;99.90
45323;DHT22;31382;50.200;8.674;2022-09-12T21:43:36;15.90;99.90
45323;DHT22;31382;50.200;8.674;2022-09-12T21:48:38;15.80;99.90
45323;DHT22;31382;50.200;8.674;2022-09-12T21:53:39;15.70;99.90
45323;DHT22;31382;50.200;8.674;2022-09-12T21:58:41;15.60;99.90
45323;DHT22;31382;50.200;8.674;2022-09-12T22:03:43;15.70;99.90
45323;DHT22;31382;50.200;8.674;2022-09-12T22:08:45;15.60;99.90
45323;DHT22;31382;50.200;8.674;2022-09-12T22:13:46;15.60;99.90
45323;DHT22;31382;50.200;8.674;2022-09-12T22:18:48;15.60;99.90
45323;DHT22;31382;50.200;8.674;2022-09-12T22:23:51;15.60;99.90
45323;DHT22;31382;50.200;8.674;2022-09-12T22:29:11;15.50;99.90
45323;DHT22;31382;50.200;8.674;2022-09-12T22:34:16;15.30;99.90
45323;DHT22;31382;50.200;8.674;2022-09-12T22:39:17;15.30;99.90
45323;DHT22;31382;50.200;8.674;2022-09-12T22:44:19;15.30;99.90
45323;DHT22;31382;50.200;8.674;2022-09-12T22:49:21;15.20;99.90
45323;DHT22;31382;50.200;8.674;2022-09-12T22:54:23;15.20;99.90
45323;DHT22;31382;50.200;8.674;2022-09-12T22:59:25;15.10;99.90
45323;DHT22;31382;50.200;8.674;2022-09-12T23:04:26;15.10;99.90
45323;DHT22;31382;50.200;8.674;2022-09-12T23:09:28;15.10;99.90
45323;DHT22;31382;50.200;8.674;2022-09-12T23:14:35;15.10;99.90
45323;DHT22;31382;50.200;8.674;2022-09-12T23:19:37;15.00;99.90
45323;DHT22;31382;50.200;8.674;2022-09-12T23:24:38;15.00;99.90
45323;DHT22;31382;50.200;8.674;2022-09-12T23:29:40;15.00;99.90
45323;DHT22;31382;50.200;8.674;2022-09-12T23:34:42;15.00;99.90
45323;DHT22;31382;50.200;8.674;2022-09-12T23:39:43;15.00;99.90
45323;DHT22;31382;50.200;8.674;2022-09-12T23:44:45;14.90;99.90
45323;DHT22;31382;50.200;8.674;2022-09-12T23:49:47;14.80;99.90
45323;DHT22;31382;50.200;8.674;2022-09-12T23:54:48;14.80;99.90
45323;DHT22;31382;50.200;8.674;2022-09-12T23:59:50;14.80;99.90
